Have a Safe July 4th! 

Flight Track Log - Related Links

Times and Time Zones

All times are in EDT time to prevent confusion due to time zone crossing. See the SKW4540 flight status page for this flight to view local times or setup timezone preferences in your user account.

Time Position Orientation Groundspeed Altitude Reporting Facility
EDT Latitude Longitude Course Direction KTS MPH feet Rate Location/Type
Sun 12:01:30 PM 40.7797 -111.9744 50° Northeast 150 173 4,800  Level Salt Lake Center
Sun 12:02:43 PM 40.7514 -112.0492 243° Southwest 233 268 6,300 1,189 Climbing Salt Lake Center
Sun 12:03:16 PM 40.7617 -112.0769 296° West 252 290 6,900 1,768 Climbing Salt Lake Center
Sun 12:04:18 PM 40.8197 -112.1478 317° Northwest 285 328 9,100 2,195 Climbing Salt Lake Center
Sun 12:05:00 PM 41.0144 -112.1180 81° East  Level FlightAware Approximate
Sun 12:05:19 PM 40.9067 -112.1897 340° North 298 343 11,400  Level Salt Lake Center
Sun 12:06:00 PM 41.0879 -112.0095 50° Northeast  Level FlightAware Approximate
Sun 12:06:21 PM 40.9697 -112.1153 42° Northeast 302 348 13,500  Level Salt Lake Center
Sun 12:07:23 PM 41.0353 -112.0397 41° Northeast 312 359 15,700 1,854 Climbing Salt Lake Center
Sun 12:08:24 PM 41.1042 -111.9594 41° Northeast 323 372 17,300 1,463 Climbing Salt Lake Center
Sun 12:09:26 PM 41.1764 -111.8753 41° Northeast 338 389 18,700 1,366 Climbing Salt Lake Center
Sun 12:10:27 PM 41.2636 -111.8206 25° Northeast 357 411 20,100 1,463 Climbing Salt Lake Center
Sun 12:11:29 PM 41.3636 -111.8033 North 362 417 21,700 1,403 Climbing Salt Lake Center
Sun 12:12:31 PM 41.4614 -111.8044 360° North 351 404 23,000 1,073 Climbing Salt Lake Center
Sun 12:13:32 PM 41.5592 -111.8447 343° North 369 425 23,900 1,024 Climbing Salt Lake Center
Sun 12:14:34 PM 41.6586 -111.8825 344° North 372 428 25,100 1,113 Climbing Salt Lake Center
Sun 12:15:36 PM 41.7794 -111.9303 344° North 379 436 26,200 927 Climbing Salt Lake Center
Sun 12:16:37 PM 41.8806 -111.9697 344° North 379 436 27,000 780 Climbing Salt Lake Center
Sun 12:17:39 PM 41.9861 -112.0103 344° North 391 450 27,800 823 Climbing Salt Lake Center
Sun 12:18:41 PM 42.0894 -112.0500 344° North 388 447 28,700 774 Climbing Salt Lake Center
Sun 12:19:43 PM 42.1942 -112.0906 344° North 391 450 29,400 585 Climbing Salt Lake Center
Sun 12:20:44 PM 42.2989 -112.1306 344° North 391 450 29,900 293 Climbing Salt Lake Center
Sun 12:21:46 PM 42.4289 -112.1825 344° North 404 465 30,000 48 Climbing Salt Lake Center
Sun 12:22:48 PM 42.5369 -112.2256 344° North 406 467 30,000  Level Salt Lake Center
Sun 12:23:50 PM 42.6453 -112.2675 344° North 406 467 30,000  Level Salt Lake Center
Sun 12:24:51 PM 42.7625 -112.3128 344° North 405 466 30,000  Level Salt Lake Center
Sun 12:25:53 PM 42.8656 -112.3544 343° North 404 465 30,000  Level Salt Lake Center
Sun 12:26:55 PM 42.9692 -112.3956 344° North 404 465 30,000  Level Salt Lake Center
Sun 12:27:57 PM 43.0894 -112.4419 344° North 402 463 30,000  Level Salt Lake Center
Sun 12:28:59 PM 43.1928 -112.4850 343° North 404 465 30,000  Level Salt Lake Center
Sun 12:30:00 PM 43.3128 -112.5339 343° North 402 463 30,000  Level Salt Lake Center
Sun 12:31:02 PM 43.4164 -112.5753 344° North 403 464 30,000  Level Salt Lake Center
Sun 12:32:04 PM 43.5350 -112.6239 343° North 399 459 30,000  Level Salt Lake Center
Sun 12:33:05 PM 43.6381 -112.6639 344° North 400 460 30,000  Level Salt Lake Center
Sun 12:34:07 PM 43.7403 -112.7069 343° North 401 461 30,000  Level Salt Lake Center
Sun 12:35:09 PM 43.8597 -112.7575 343° North 400 460 30,000  Level Salt Lake Center
Sun 12:36:11 PM 43.9625 -112.7992 344° North 400 460 30,000  Level Salt Lake Center
Sun 12:37:12 PM 44.0808 -112.8486 343° North 398 458 30,000  Level Salt Lake Center
Sun 12:38:14 PM 44.1836 -112.8914 343° North 399 459 30,000  Level Salt Lake Center
Sun 12:39:16 PM 44.2875 -112.9339 344° North 402 463 30,000  Level Salt Lake Center
Sun 12:40:17 PM 44.4064 -112.9833 343° North 401 461 30,000  Level Salt Lake Center
Sun 12:41:19 PM 44.5078 -113.0272 343° North 399 459 30,000  Level Salt Lake Center
Sun 12:42:21 PM 44.6256 -113.0772 343° North 397 457 30,000  Level Salt Lake Center
Sun 12:43:22 PM 44.7264 -113.1208 343° North 396 456 30,000  Level Salt Lake Center
Sun 12:44:24 PM 44.8444 -113.1700 344° North 395 455 30,000  Level Salt Lake Center
Sun 12:45:26 PM 44.9453 -113.2133 343° North 395 455 30,000  Level Salt Lake Center
Sun 12:46:27 PM 45.0472 -113.2581 343° North 397 457 30,000  Level Salt Lake Center
Sun 12:47:29 PM 45.1653 -113.3072 344° North 395 455 30,000  Level Salt Lake Center
Sun 12:48:31 PM 45.2661 -113.3514 343° North 396 456 30,000 -49 Level Salt Lake Center
Sun 12:49:32 PM 45.3864 -113.4028 343° North 400 460 29,900 -585 Descending Salt Lake Center
Sun 12:50:34 PM 45.4869 -113.4461 343° North 397 457 28,800 -1,268 Descending Salt Lake Center
Sun 12:51:35 PM 45.5797 -113.4875 343° North 376 433 27,300 -1,512 Descending Salt Lake Center
Sun 12:52:37 PM 45.6842 -113.5344 343° North 357 411 25,700 -1,500 Descending Salt Lake Center
Sun 12:53:39 PM 45.7750 -113.5747 343° North 356 410 24,200 -1,561 Descending Salt Lake Center
Sun 12:54:40 PM 45.8781 -113.6200 343° North 361 415 22,500 -1,561 Descending Salt Lake Center
Sun 12:55:42 PM 45.9744 -113.6631 343° North 363 418 21,000 -1,463 Descending Salt Lake Center
Sun 12:56:43 PM 46.0706 -113.7033 344° North 362 417 19,500 -1,512 Descending Salt Lake Center
Sun 12:57:45 PM 46.1742 -113.7531 342° North 344 396 17,900 -1,463 Descending Salt Lake Center
Sun 12:58:46 PM 46.2597 -113.7917 343° North 325 374 16,500 -1,415 Descending Salt Lake Center
Sun 12:59:48 PM 46.3447 -113.8314 342° North 322 371 15,000 -1,210 Descending Salt Lake Center
Sun 01:00:50 PM 46.4333 -113.8689 344° North 310 357 14,000 -1,024 Descending Salt Lake Center
Sun 01:01:51 PM 46.5100 -113.9056 342° North 294 338 12,900 -1,220 Descending Salt Lake Center
Sun 01:02:53 PM 46.5872 -113.9414 342° North 292 336 11,500 -1,463 Descending Salt Lake Center
Sun 01:03:54 PM 46.6672 -113.9778 343° North 282 325 9,900 -1,415 Descending Salt Lake Center
Sun 01:04:56 PM 46.7350 -114.0050 345° North 258 297 8,600 -1,210 Descending Salt Lake Center
Sun 01:05:58 PM 46.8022 -114.0014 North 222 255 7,400 -1,463 Descending Salt Lake Center
Sun 01:06:59 PM 46.8533 -113.9956 North 183 211 5,600 -1,659 Descending Salt Lake Center
Sun 01:08:01 PM 46.8842 -114.0369 317° Northwest 152 175 4,000 -1,171 Descending Salt Lake Center
Sun 01:09:02 PM 46.9119 -114.0853 310° West 145 167 3,200 -787 Descending Salt Lake Center

Login

Don't have an account? Register now (free) for customized features, flight alerts, and more!